sensor_id;sensor_type;location;lat;lon;timestamp;pressure;altitude;pressure_sealevel;temperature;humidity
59063;BME280;44851;45.648;9.004;2023-06-26T00:01:43;98945.13;;;25.34;45.38
59063;BME280;44851;45.648;9.004;2023-06-26T00:04:08;98945.50;;;25.26;45.93
59063;BME280;44851;45.648;9.004;2023-06-26T00:06:40;98941.31;;;25.30;45.48
59063;BME280;44851;45.648;9.004;2023-06-26T00:09:06;98942.94;;;25.31;45.45
59063;BME280;44851;45.648;9.004;2023-06-26T00:11:31;98940.63;;;25.23;46.23
59063;BME280;44851;45.648;9.004;2023-06-26T00:13:59;98952.78;;;25.19;45.76
59063;BME280;44851;45.648;9.004;2023-06-26T00:16:26;98953.63;;;25.31;46.34
59063;BME280;44851;45.648;9.004;2023-06-26T00:18:52;98958.97;;;25.31;46.48
59063;BME280;44851;45.648;9.004;2023-06-26T00:21:17;98948.50;;;25.18;46.17
59063;BME280;44851;45.648;9.004;2023-06-26T00:23:44;98964.09;;;25.21;46.15
59063;BME280;44851;45.648;9.004;2023-06-26T00:26:09;98959.16;;;25.18;46.31
59063;BME280;44851;45.648;9.004;2023-06-26T00:28:35;98957.47;;;25.00;46.71
59063;BME280;44851;45.648;9.004;2023-06-26T00:31:01;98962.13;;;25.05;46.66
59063;BME280;44851;45.648;9.004;2023-06-26T00:33:26;98958.00;;;25.14;45.98
59063;BME280;44851;45.648;9.004;2023-06-26T00:35:51;98958.50;;;25.11;45.39
59063;BME280;44851;45.648;9.004;2023-06-26T00:38:17;98961.41;;;25.09;45.56
59063;BME280;44851;45.648;9.004;2023-06-26T00:40:42;98961.41;;;25.09;46.16
59063;BME280;44851;45.648;9.004;2023-06-26T00:43:09;98957.34;;;25.07;46.15
59063;BME280;44851;45.648;9.004;2023-06-26T00:45:34;98963.50;;;24.96;46.17
59063;BME280;44851;45.648;9.004;2023-06-26T00:48:00;98957.13;;;24.97;45.92
59063;BME280;44851;45.648;9.004;2023-06-26T00:50:25;98955.41;;;24.90;45.91
59063;BME280;44851;45.648;9.004;2023-06-26T00:52:51;98956.19;;;25.03;46.39
59063;BME280;44851;45.648;9.004;2023-06-26T00:55:17;98957.00;;;24.91;46.18
59063;BME280;44851;45.648;9.004;2023-06-26T00:57:43;98947.44;;;24.67;46.43
59063;BME280;44851;45.648;9.004;2023-06-26T01:00:11;98951.69;;;24.80;46.10
59063;BME280;44851;45.648;9.004;2023-06-26T01:02:38;98954.38;;;24.68;46.62
59063;BME280;44851;45.648;9.004;2023-06-26T01:05:05;98954.50;;;24.73;46.65
59063;BME280;44851;45.648;9.004;2023-06-26T01:07:32;98959.59;;;24.75;46.78
59063;BME280;44851;45.648;9.004;2023-06-26T01:10:03;98953.22;;;24.64;46.82
59063;BME280;44851;45.648;9.004;2023-06-26T01:12:30;98961.78;;;24.66;45.95
59063;BME280;44851;45.648;9.004;2023-06-26T01:14:57;98958.44;;;24.59;46.22
59063;BME280;44851;45.648;9.004;2023-06-26T01:17:23;98957.28;;;24.78;46.31
59063;BME280;44851;45.648;9.004;2023-06-26T01:19:48;98959.66;;;24.45;46.71
59063;BME280;44851;45.648;9.004;2023-06-26T01:28:22;98968.03;;;24.60;46.77
59063;BME280;44851;45.648;9.004;2023-06-26T01:30:50;98967.94;;;24.67;46.33
59063;BME280;44851;45.648;9.004;2023-06-26T01:33:16;98962.94;;;24.58;47.13
59063;BME280;44851;45.648;9.004;2023-06-26T01:35:42;98955.84;;;24.52;47.20
59063;BME280;44851;45.648;9.004;2023-06-26T01:38:15;98956.41;;;24.43;46.82
59063;BME280;44851;45.648;9.004;2023-06-26T01:40:41;98954.69;;;24.48;47.02
59063;BME280;44851;45.648;9.004;2023-06-26T01:45:50;98954.56;;;24.31;47.19
59063;BME280;44851;45.648;9.004;2023-06-26T01:48:25;98959.31;;;24.41;46.75
59063;BME280;44851;45.648;9.004;2023-06-26T01:50:53;98954.44;;;24.38;47.39
59063;BME280;44851;45.648;9.004;2023-06-26T01:53:21;98949.59;;;24.35;47.13
59063;BME280;44851;45.648;9.004;2023-06-26T01:55:57;98957.09;;;24.26;47.71
59063;BME280;44851;45.648;9.004;2023-06-26T01:58:25;98947.84;;;24.40;47.34
59063;BME280;44851;45.648;9.004;2023-06-26T02:00:51;98956.16;;;24.32;47.62
59063;BME280;44851;45.648;9.004;2023-06-26T02:03:17;98953.13;;;24.17;47.96
59063;BME280;44851;45.648;9.004;2023-06-26T02:05:42;98953.50;;;24.21;47.53
59063;BME280;44851;45.648;9.004;2023-06-26T02:08:09;98951.53;;;24.16;47.92
59063;BME280;44851;45.648;9.004;2023-06-26T02:10:35;98954.16;;;24.04;47.94
59063;BME280;44851;45.648;9.004;2023-06-26T02:13:01;98958.69;;;24.04;47.99
59063;BME280;44851;45.648;9.004;2023-06-26T02:15:26;98952.31;;;24.17;47.92
59063;BME280;44851;45.648;9.004;2023-06-26T02:17:52;98955.66;;;24.12;48.22
59063;BME280;44851;45.648;9.004;2023-06-26T02:20:17;98961.00;;;24.12;48.26
59063;BME280;44851;45.648;9.004;2023-06-26T02:22:43;98961.03;;;23.82;48.77
59063;BME280;44851;45.648;9.004;2023-06-26T02:25:09;98967.59;;;23.98;48.38
59063;BME280;44851;45.648;9.004;2023-06-26T02:27:35;98971.50;;;23.95;48.38
59063;BME280;44851;45.648;9.004;2023-06-26T02:30:01;98971.56;;;23.88;48.80
59063;BME280;44851;45.648;9.004;2023-06-26T02:32:26;98968.47;;;23.92;48.88
59063;BME280;44851;45.648;9.004;2023-06-26T02:34:51;98961.22;;;23.80;48.55
59063;BME280;44851;45.648;9.004;2023-06-26T02:37:18;98962.50;;;23.78;48.97
59063;BME280;44851;45.648;9.004;2023-06-26T02:39:43;98960.41;;;23.80;48.72
59063;BME280;44851;45.648;9.004;2023-06-26T02:42:09;98966.69;;;23.85;48.63
59063;BME280;44851;45.648;9.004;2023-06-26T02:44:34;98967.06;;;23.89;48.49
59063;BME280;44851;45.648;9.004;2023-06-26T02:46:59;98970.94;;;23.75;48.50
59063;BME280;44851;45.648;9.004;2023-06-26T02:49:25;98967.97;;;23.83;49.07
59063;BME280;44851;45.648;9.004;2023-06-26T02:51:50;98970.59;;;23.71;49.42
59063;BME280;44851;45.648;9.004;2023-06-26T02:54:16;98979.84;;;23.80;48.93
59063;BME280;44851;45.648;9.004;2023-06-26T02:56:41;98980.94;;;23.61;48.97
59063;BME280;44851;45.648;9.004;2023-06-26T02:59:07;98977.53;;;23.72;49.25
59063;BME280;44851;45.648;9.004;2023-06-26T03:01:33;98985.66;;;23.77;48.94
59063;BME280;44851;45.648;9.004;2023-06-26T03:03:58;98980.94;;;23.61;49.50
59063;BME280;44851;45.648;9.004;2023-06-26T03:06:26;98979.59;;;23.70;49.55
59063;BME280;44851;45.648;9.004;2023-06-26T03:08:53;98988.47;;;23.64;49.09
59063;BME280;44851;45.648;9.004;2023-06-26T03:11:18;98983.16;;;23.64;49.31
59063;BME280;44851;45.648;9.004;2023-06-26T03:13:44;98982.94;;;23.66;49.49
59063;BME280;44851;45.648;9.004;2023-06-26T03:16:09;98986.28;;;23.61;49.13
59063;BME280;44851;45.648;9.004;2023-06-26T03:18:35;98988.69;;;23.62;49.25
59063;BME280;44851;45.648;9.004;2023-06-26T03:21:00;98990.56;;;23.62;49.44
59063;BME280;44851;45.648;9.004;2023-06-26T03:23:26;98993.38;;;23.49;49.82
59063;BME280;44851;45.648;9.004;2023-06-26T03:25:51;98998.69;;;23.49;49.47
59063;BME280;44851;45.648;9.004;2023-06-26T03:28:17;98995.31;;;23.60;49.01
59063;BME280;44851;45.648;9.004;2023-06-26T03:30:43;98987.47;;;23.47;49.23
59063;BME280;44851;45.648;9.004;2023-06-26T03:33:08;98996.78;;;23.56;49.05
59063;BME280;44851;45.648;9.004;2023-06-26T03:35:34;99002.84;;;23.45;49.80
59063;BME280;44851;45.648;9.004;2023-06-26T03:38:01;99003.47;;;23.22;50.09
59063;BME280;44851;45.648;9.004;2023-06-26T03:40:26;98994.88;;;23.45;49.86
59063;BME280;44851;45.648;9.004;2023-06-26T03:42:52;99002.03;;;23.44;50.07
59063;BME280;44851;45.648;9.004;2023-06-26T03:45:17;98997.59;;;23.38;50.64
59063;BME280;44851;45.648;9.004;2023-06-26T03:47:44;99002.56;;;23.34;50.24
59063;BME280;44851;45.648;9.004;2023-06-26T03:50:12;99005.94;;;23.42;50.13
59063;BME280;44851;45.648;9.004;2023-06-26T03:52:37;99001.66;;;23.41;50.08
59063;BME280;44851;45.648;9.004;2023-06-26T03:55:03;99003.66;;;23.45;50.18
59063;BME280;44851;45.648;9.004;2023-06-26T03:57:28;99008.22;;;23.38;50.50
59063;BME280;44851;45.648;9.004;2023-06-26T03:59:54;99003.59;;;23.33;50.11
59063;BME280;44851;45.648;9.004;2023-06-26T04:02:19;99005.78;;;23.36;51.79
59063;BME280;44851;45.648;9.004;2023-06-26T04:04:45;99006.09;;;23.28;51.91
59063;BME280;44851;45.648;9.004;2023-06-26T04:07:10;99009.00;;;23.20;51.75
59063;BME280;44851;45.648;9.004;2023-06-26T04:09:36;99004.66;;;23.07;52.57
59063;BME280;44851;45.648;9.004;2023-06-26T04:12:02;99005.31;;;23.21;51.82
59063;BME280;44851;45.648;9.004;2023-06-26T04:14:28;99002.75;;;23.15;51.77
59063;BME280;44851;45.648;9.004;2023-06-26T04:16:53;98999.59;;;23.24;52.25
59063;BME280;44851;45.648;9.004;2023-06-26T04:19:19;99004.88;;;23.06;52.04
59063;BME280;44851;45.648;9.004;2023-06-26T04:21:44;99011.28;;;23.17;52.56
59063;BME280;44851;45.648;9.004;2023-06-26T04:24:10;99012.09;;;23.17;51.90
59063;BME280;44851;45.648;9.004;2023-06-26T04:26:35;99012.72;;;23.38;52.15
59063;BME280;44851;45.648;9.004;2023-06-26T04:29:01;99008.22;;;23.38;52.52
59063;BME280;44851;45.648;9.004;2023-06-26T04:31:26;99012.72;;;23.38;52.50
59063;BME280;44851;45.648;9.004;2023-06-26T04:33:52;99020.00;;;23.05;51.40
59063;BME280;44851;45.648;9.004;2023-06-26T04:36:20;99019.56;;;23.33;52.43
59063;BME280;44851;45.648;9.004;2023-06-26T04:38:46;99022.88;;;23.22;52.25
59063;BME280;44851;45.648;9.004;2023-06-26T04:41:13;99013.72;;;23.25;51.50
59063;BME280;44851;45.648;9.004;2023-06-26T04:43:39;99017.88;;;23.14;52.81
59063;BME280;44851;45.648;9.004;2023-06-26T04:46:05;99014.53;;;23.25;52.96
59063;BME280;44851;45.648;9.004;2023-06-26T04:48:31;99017.19;;;23.25;52.52
59063;BME280;44851;45.648;9.004;2023-06-26T04:50:56;99020.78;;;23.31;53.10
59063;BME280;44851;45.648;9.004;2023-06-26T04:53:24;99017.91;;;23.32;52.57
59063;BME280;44851;45.648;9.004;2023-06-26T04:55:51;99016.00;;;23.40;52.55
59063;BME280;44851;45.648;9.004;2023-06-26T04:58:17;99022.63;;;23.49;53.33
59063;BME280;44851;45.648;9.004;2023-06-26T05:00:42;99017.03;;;23.57;52.77
59063;BME280;44851;45.648;9.004;2023-06-26T05:03:10;99019.97;;;23.49;53.09
59063;BME280;44851;45.648;9.004;2023-06-26T05:05:35;99017.91;;;23.51;52.21
59063;BME280;44851;45.648;9.004;2023-06-26T05:08:13;99025.28;;;23.49;52.33
59063;BME280;44851;45.648;9.004;2023-06-26T05:10:39;99026.50;;;23.34;52.04
59063;BME280;44851;45.648;9.004;2023-06-26T05:13:05;99021.00;;;23.48;52.41
59063;BME280;44851;45.648;9.004;2023-06-26T05:15:30;99019.97;;;23.49;52.58
59063;BME280;44851;45.648;9.004;2023-06-26T05:17:56;99027.22;;;23.42;52.74
59063;BME280;44851;45.648;9.004;2023-06-26T05:20:21;99026.56;;;23.46;52.72
59063;BME280;44851;45.648;9.004;2023-06-26T05:22:47;99020.19;;;23.47;53.51
59063;BME280;44851;45.648;9.004;2023-06-26T05:25:13;99021.63;;;23.50;52.65
59063;BME280;44851;45.648;9.004;2023-06-26T05:27:39;99024.03;;;23.51;53.47
59063;BME280;44851;45.648;9.004;2023-06-26T05:30:05;99021.63;;;23.50;52.77
59063;BME280;44851;45.648;9.004;2023-06-26T05:32:34;99025.72;;;23.64;52.55
59063;BME280;44851;45.648;9.004;2023-06-26T05:35:01;99030.38;;;23.69;53.00
59063;BME280;44851;45.648;9.004;2023-06-26T05:37:28;99025.09;;;23.50;52.59
59063;BME280;44851;45.648;9.004;2023-06-26T05:39:54;99032.47;;;23.67;52.49
59063;BME280;44851;45.648;9.004;2023-06-26T05:42:20;99025.91;;;23.81;52.53
59063;BME280;44851;45.648;9.004;2023-06-26T05:44:45;99027.63;;;23.75;52.65
59063;BME280;44851;45.648;9.004;2023-06-26T05:47:10;99020.25;;;23.77;52.18
59063;BME280;44851;45.648;9.004;2023-06-26T05:49:36;99018.03;;;23.93;52.95
59063;BME280;44851;45.648;9.004;2023-06-26T05:52:02;99015.03;;;24.01;51.96
59063;BME280;44851;45.648;9.004;2023-06-26T05:54:27;99023.16;;;24.06;52.82
59063;BME280;44851;45.648;9.004;2023-06-26T05:56:56;99016.09;;;24.00;53.39
59063;BME280;44851;45.648;9.004;2023-06-26T05:59:24;99017.53;;;24.14;53.06
59063;BME280;44851;45.648;9.004;2023-06-26T06:01:49;99015.81;;;24.20;52.98
59063;BME280;44851;45.648;9.004;2023-06-26T06:04:15;99018.22;;;24.21;53.08
59063;BME280;44851;45.648;9.004;2023-06-26T06:06:40;99028.09;;;24.32;52.96
59063;BME280;44851;45.648;9.004;2023-06-26T06:09:06;99035.31;;;24.44;52.61
59063;BME280;44851;45.648;9.004;2023-06-26T06:11:31;99032.63;;;24.44;54.33
59063;BME280;44851;45.648;9.004;2023-06-26T06:13:56;99030.38;;;24.59;53.56
59063;BME280;44851;45.648;9.004;2023-06-26T06:16:24;99031.56;;;24.63;50.48
59063;BME280;44851;45.648;9.004;2023-06-26T06:18:49;99035.50;;;24.72;50.94
59063;BME280;44851;45.648;9.004;2023-06-26T06:21:14;99034.13;;;25.05;51.09
59063;BME280;44851;45.648;9.004;2023-06-26T06:23:40;99035.47;;;25.19;50.24
59063;BME280;44851;45.648;9.004;2023-06-26T06:26:05;99039.31;;;25.47;51.03
59063;BME280;44851;45.648;9.004;2023-06-26T06:28:31;99034.16;;;25.57;51.03
59063;BME280;44851;45.648;9.004;2023-06-26T06:30:56;99034.97;;;25.69;48.61
59063;BME280;44851;45.648;9.004;2023-06-26T06:33:21;99034.66;;;25.82;47.65
59063;BME280;44851;45.648;9.004;2023-06-26T06:35:47;99033.06;;;26.10;48.27
59063;BME280;44851;45.648;9.004;2023-06-26T06:38:12;99035.53;;;26.28;47.72
59063;BME280;44851;45.648;9.004;2023-06-26T06:40:38;99034.78;;;26.44;47.71
59063;BME280;44851;45.648;9.004;2023-06-26T06:43:03;99032.28;;;26.71;47.69
59063;BME280;44851;45.648;9.004;2023-06-26T06:45:29;99027.53;;;26.95;42.47
59063;BME280;44851;45.648;9.004;2023-06-26T06:47:54;99029.84;;;27.04;41.02
59063;BME280;44851;45.648;9.004;2023-06-26T06:50:20;99036.53;;;27.23;41.60
59063;BME280;44851;45.648;9.004;2023-06-26T06:52:45;99029.13;;;27.30;44.40
59063;BME280;44851;45.648;9.004;2023-06-26T06:55:11;99032.47;;;27.42;42.19
59063;BME280;44851;45.648;9.004;2023-06-26T06:57:38;99039.91;;;27.57;41.10
59063;BME280;44851;45.648;9.004;2023-06-26T07:00:08;99035.00;;;27.71;38.93
59063;BME280;44851;45.648;9.004;2023-06-26T07:02:36;99033.09;;;27.93;40.09
59063;BME280;44851;45.648;9.004;2023-06-26T07:05:02;99028.56;;;28.21;38.71
59063;BME280;44851;45.648;9.004;2023-06-26T07:07:30;99032.31;;;28.20;38.46
59063;BME280;44851;45.648;9.004;2023-06-26T07:10:00;99022.56;;;28.36;37.92
59063;BME280;44851;45.648;9.004;2023-06-26T07:12:26;99020.31;;;28.60;39.19
59063;BME280;44851;45.648;9.004;2023-06-26T07:14:52;99023.56;;;28.62;40.03
59063;BME280;44851;45.648;9.004;2023-06-26T07:17:19;99022.00;;;28.71;39.17
59063;BME280;44851;45.648;9.004;2023-06-26T07:19:44;99023.75;;;28.82;41.26
59063;BME280;44851;45.648;9.004;2023-06-26T07:22:10;99017.91;;;28.95;41.29
59063;BME280;44851;45.648;9.004;2023-06-26T07:24:35;99017.34;;;28.88;39.51
59063;BME280;44851;45.648;9.004;2023-06-26T07:27:00;99026.56;;;29.08;40.82
59063;BME280;44851;45.648;9.004;2023-06-26T07:29:26;99022.28;;;29.12;37.97
59063;BME280;44851;45.648;9.004;2023-06-26T07:31:51;99030.94;;;29.24;37.03
59063;BME280;44851;45.648;9.004;2023-06-26T07:34:17;99031.66;;;29.51;36.04
59063;BME280;44851;45.648;9.004;2023-06-26T07:36:42;99026.78;;;29.48;38.17
59063;BME280;44851;45.648;9.004;2023-06-26T07:39:07;99025.72;;;29.54;35.62
59063;BME280;44851;45.648;9.004;2023-06-26T07:41:33;99028.19;;;29.71;36.21
59063;BME280;44851;45.648;9.004;2023-06-26T07:43:58;99033.03;;;29.69;35.51
59063;BME280;44851;45.648;9.004;2023-06-26T07:46:24;99020.50;;;29.85;35.48
59063;BME280;44851;45.648;9.004;2023-06-26T07:48:50;99020.50;;;29.95;33.95
59063;BME280;44851;45.648;9.004;2023-06-26T07:51:15;99019.97;;;30.08;36.93
59063;BME280;44851;45.648;9.004;2023-06-26T07:53:41;99015.97;;;30.06;36.41
59063;BME280;44851;45.648;9.004;2023-06-26T07:56:06;99017.84;;;30.11;36.58
59063;BME280;44851;45.648;9.004;2023-06-26T07:58:32;99007.66;;;30.33;33.62
59063;BME280;44851;45.648;9.004;2023-06-26T08:00:58;99022.97;;;30.32;34.33
59063;BME280;44851;45.648;9.004;2023-06-26T08:03:24;99029.16;;;30.28;33.09
59063;BME280;44851;45.648;9.004;2023-06-26T08:05:49;99017.63;;;30.58;34.41
59063;BME280;44851;45.648;9.004;2023-06-26T08:08:15;99011.97;;;30.65;33.40
59063;BME280;44851;45.648;9.004;2023-06-26T08:10:40;99008.19;;;30.76;32.58
59063;BME280;44851;45.648;9.004;2023-06-26T08:13:06;99014.06;;;30.88;34.25
59063;BME280;44851;45.648;9.004;2023-06-26T08:15:31;99014.06;;;30.83;36.38
59063;BME280;44851;45.648;9.004;2023-06-26T08:17:56;99010.88;;;30.91;35.59
59063;BME280;44851;45.648;9.004;2023-06-26T08:20:22;99006.00;;;30.98;36.77
59063;BME280;44851;45.648;9.004;2023-06-26T08:22:48;99009.75;;;31.07;35.69
59063;BME280;44851;45.648;9.004;2023-06-26T08:25:16;99013.00;;;30.99;34.02
59063;BME280;44851;45.648;9.004;2023-06-26T08:27:42;99016.75;;;31.08;32.21
59063;BME280;44851;45.648;9.004;2023-06-26T08:30:08;99008.66;;;31.13;32.53
59063;BME280;44851;45.648;9.004;2023-06-26T08:32:33;99001.66;;;31.12;32.92
59063;BME280;44851;45.648;9.004;2023-06-26T08:34:58;99004.88;;;31.15;32.47
59063;BME280;44851;45.648;9.004;2023-06-26T08:37:24;99002.16;;;31.20;31.28
59063;BME280;44851;45.648;9.004;2023-06-26T08:39:49;99004.53;;;31.31;32.02
59063;BME280;44851;45.648;9.004;2023-06-26T08:42:15;99001.28;;;31.45;32.92
59063;BME280;44851;45.648;9.004;2023-06-26T08:44:40;99000.69;;;31.53;33.72
59063;BME280;44851;45.648;9.004;2023-06-26T08:47:06;98998.25;;;31.56;32.40
59063;BME280;44851;45.648;9.004;2023-06-26T08:52:23;98990.94;;;31.67;31.44
59063;BME280;44851;45.648;9.004;2023-06-26T08:54:56;98985.75;;;31.81;33.55
59063;BME280;44851;45.648;9.004;2023-06-26T08:57:23;98995.53;;;31.67;32.32
59063;BME280;44851;45.648;9.004;2023-06-26T08:59:49;98997.97;;;31.58;32.12
59063;BME280;44851;45.648;9.004;2023-06-26T09:02:15;98990.22;;;31.46;31.67
59063;BME280;44851;45.648;9.004;2023-06-26T09:04:40;98987.41;;;31.72;34.69
59063;BME280;44851;45.648;9.004;2023-06-26T09:07:07;98985.38;;;31.98;32.85
59063;BME280;44851;45.648;9.004;2023-06-26T09:09:32;98981.16;;;31.81;30.97
59063;BME280;44851;45.648;9.004;2023-06-26T09:11:58;98984.59;;;31.97;32.92
59063;BME280;44851;45.648;9.004;2023-06-26T09:14:24;98982.91;;;32.01;30.75
59063;BME280;44851;45.648;9.004;2023-06-26T09:16:50;98979.44;;;31.90;31.47
59063;BME280;44851;45.648;9.004;2023-06-26T09:19:15;98974.84;;;31.91;31.21
59063;BME280;44851;45.648;9.004;2023-06-26T09:21:42;98983.78;;;31.97;31.34
59063;BME280;44851;45.648;9.004;2023-06-26T09:24:08;98975.31;;;32.08;31.04
59063;BME280;44851;45.648;9.004;2023-06-26T09:26:38;98974.78;;;32.40;32.64
59063;BME280;44851;45.648;9.004;2023-06-26T09:29:05;98970.19;;;32.46;31.76
59063;BME280;44851;45.648;9.004;2023-06-26T09:31:41;98963.00;;;32.31;30.41
59063;BME280;44851;45.648;9.004;2023-06-26T09:34:08;98968.38;;;32.31;30.56
59063;BME280;44851;45.648;9.004;2023-06-26T09:36:33;98972.03;;;32.51;30.19
59063;BME280;44851;45.648;9.004;2023-06-26T09:39:05;98966.69;;;32.40;30.35
59063;BME280;44851;45.648;9.004;2023-06-26T09:41:37;98964.53;;;32.37;30.43
59063;BME280;44851;45.648;9.004;2023-06-26T09:44:06;98960.59;;;32.30;31.47
59063;BME280;44851;45.648;9.004;2023-06-26T09:46:31;98959.91;;;32.43;32.36
59063;BME280;44851;45.648;9.004;2023-06-26T09:49:03;98956.53;;;32.61;30.47
59063;BME280;44851;45.648;9.004;2023-06-26T09:51:33;98956.94;;;32.74;32.38
59063;BME280;44851;45.648;9.004;2023-06-26T09:54:02;98957.63;;;32.60;30.69
59063;BME280;44851;45.648;9.004;2023-06-26T09:56:29;98950.94;;;32.82;30.61
59063;BME280;44851;45.648;9.004;2023-06-26T09:59:03;98949.69;;;32.69;30.17
59063;BME280;44851;45.648;9.004;2023-06-26T10:01:29;98942.41;;;32.70;31.54
59063;BME280;44851;45.648;9.004;2023-06-26T10:03:55;98946.53;;;32.86;31.04
59063;BME280;44851;45.648;9.004;2023-06-26T10:06:27;98945.38;;;32.92;30.79
59063;BME280;44851;45.648;9.004;2023-06-26T10:08:56;98942.06;;;32.76;30.58
59063;BME280;44851;45.648;9.004;2023-06-26T10:11:25;98941.16;;;32.62;32.25
59063;BME280;44851;45.648;9.004;2023-06-26T10:13:54;98932.97;;;32.91;30.24
59063;BME280;44851;45.648;9.004;2023-06-26T10:16:26;98939.09;;;33.02;30.12
59063;BME280;44851;45.648;9.004;2023-06-26T10:18:58;98933.22;;;33.18;33.24
59063;BME280;44851;45.648;9.004;2023-06-26T10:21:26;98939.13;;;33.39;31.29
59063;BME280;44851;45.648;9.004;2023-06-26T10:23:54;98943.06;;;33.52;31.79
59063;BME280;44851;45.648;9.004;2023-06-26T10:26:21;98936.63;;;33.48;31.69
59063;BME280;44851;45.648;9.004;2023-06-26T10:28:48;98931.84;;;33.40;29.60
59063;BME280;44851;45.648;9.004;2023-06-26T10:31:19;98932.38;;;33.42;31.52
59063;BME280;44851;45.648;9.004;2023-06-26T10:33:47;98933.19;;;33.61;32.48
59063;BME280;44851;45.648;9.004;2023-06-26T10:36:17;98924.72;;;33.68;32.81
59063;BME280;44851;45.648;9.004;2023-06-26T10:38:56;98915.13;;;33.76;28.58
59063;BME280;44851;45.648;9.004;2023-06-26T10:41:22;98918.94;;;33.75;31.17
59063;BME280;44851;45.648;9.004;2023-06-26T10:44:05;98928.06;;;33.79;30.23
59063;BME280;44851;45.648;9.004;2023-06-26T10:46:52;98918.38;;;33.78;31.79
59063;BME280;44851;45.648;9.004;2023-06-26T10:49:20;98921.72;;;33.69;30.36
59063;BME280;44851;45.648;9.004;2023-06-26T10:51:47;98917.50;;;33.63;29.09
59063;BME280;44851;45.648;9.004;2023-06-26T10:54:18;98922.28;;;33.66;30.82
59063;BME280;44851;45.648;9.004;2023-06-26T10:56:50;98922.00;;;33.49;29.74
59063;BME280;44851;45.648;9.004;2023-06-26T10:59:23;98914.22;;;33.24;31.07
59063;BME280;44851;45.648;9.004;2023-06-26T11:01:57;98913.84;;;33.54;29.16
59063;BME280;44851;45.648;9.004;2023-06-26T11:04:41;98907.69;;;33.67;29.53
59063;BME280;44851;45.648;9.004;2023-06-26T11:07:22;98917.41;;;33.68;29.78
59063;BME280;44851;45.648;9.004;2023-06-26T11:10:10;98911.63;;;33.94;30.78
59063;BME280;44851;45.648;9.004;2023-06-26T11:12:37;98906.94;;;33.81;29.12
59063;BME280;44851;45.648;9.004;2023-06-26T11:15:10;98910.63;;;34.04;29.83
59063;BME280;44851;45.648;9.004;2023-06-26T11:17:36;98906.56;;;33.87;29.33
59063;BME280;44851;45.648;9.004;2023-06-26T11:20:04;98904.31;;;33.94;29.45
59063;BME280;44851;45.648;9.004;2023-06-26T11:22:31;98902.00;;;34.20;30.29
59063;BME280;44851;45.648;9.004;2023-06-26T11:24:59;98902.47;;;34.22;29.43
59063;BME280;44851;45.648;9.004;2023-06-26T11:27:37;98905.13;;;34.41;29.16
59063;BME280;44851;45.648;9.004;2023-06-26T11:30:06;98904.69;;;34.20;29.07
59063;BME280;44851;45.648;9.004;2023-06-26T11:32:32;98905.03;;;34.00;28.64
59063;BME280;44851;45.648;9.004;2023-06-26T11:34:59;98900.25;;;34.11;28.54
59063;BME280;44851;45.648;9.004;2023-06-26T11:37:25;98900.28;;;34.25;28.73
59063;BME280;44851;45.648;9.004;2023-06-26T11:39:50;98893.66;;;34.17;29.02
59063;BME280;44851;45.648;9.004;2023-06-26T11:42:19;98901.69;;;34.36;29.03
59063;BME280;44851;45.648;9.004;2023-06-26T11:44:45;98904.13;;;34.79;31.18
59063;BME280;44851;45.648;9.004;2023-06-26T11:47:17;98902.06;;;34.76;27.95
59063;BME280;44851;45.648;9.004;2023-06-26T11:49:44;98891.72;;;34.78;28.69
59063;BME280;44851;45.648;9.004;2023-06-26T11:52:10;98889.00;;;34.78;27.42
59063;BME280;44851;45.648;9.004;2023-06-26T11:54:35;98891.22;;;34.89;27.56
59063;BME280;44851;45.648;9.004;2023-06-26T11:57:01;98888.03;;;35.01;29.75
59063;BME280;44851;45.648;9.004;2023-06-26T11:59:37;98887.72;;;35.03;29.34
59063;BME280;44851;45.648;9.004;2023-06-26T12:02:21;98887.91;;;35.06;29.53
59063;BME280;44851;45.648;9.004;2023-06-26T12:04:46;98881.09;;;34.67;28.53
59063;BME280;44851;45.648;9.004;2023-06-26T12:07:12;98880.50;;;34.84;29.30
59063;BME280;44851;45.648;9.004;2023-06-26T12:09:42;98885.31;;;34.73;28.30
59063;BME280;44851;45.648;9.004;2023-06-26T12:12:14;98876.19;;;34.56;28.09
59063;BME280;44851;45.648;9.004;2023-06-26T12:14:40;98867.84;;;34.52;29.06
59063;BME280;44851;45.648;9.004;2023-06-26T12:17:11;98869.66;;;34.98;30.51
59063;BME280;44851;45.648;9.004;2023-06-26T12:19:38;98873.16;;;35.12;29.22
59063;BME280;44851;45.648;9.004;2023-06-26T12:22:07;98882.28;;;35.03;27.88
59063;BME280;44851;45.648;9.004;2023-06-26T12:24:36;98878.03;;;35.10;28.76
59063;BME280;44851;45.648;9.004;2023-06-26T12:27:02;98871.59;;;35.34;28.35
59063;BME280;44851;45.648;9.004;2023-06-26T12:29:32;98875.81;;;35.62;30.89
59063;BME280;44851;45.648;9.004;2023-06-26T12:31:59;98866.56;;;35.41;27.62
59063;BME280;44851;45.648;9.004;2023-06-26T12:34:32;98878.13;;;35.33;27.66
59063;BME280;44851;45.648;9.004;2023-06-26T12:37:02;98871.38;;;35.44;27.96
59063;BME280;44851;45.648;9.004;2023-06-26T12:39:29;98861.25;;;35.36;27.56
59063;BME280;44851;45.648;9.004;2023-06-26T12:42:00;98859.53;;;35.40;28.25
59063;BME280;44851;45.648;9.004;2023-06-26T12:47:00;98859.91;;;35.69;28.81
59063;BME280;44851;45.648;9.004;2023-06-26T12:49:35;98857.34;;;35.87;26.68
59063;BME280;44851;45.648;9.004;2023-06-26T12:52:04;98852.63;;;35.56;26.71
59063;BME280;44851;45.648;9.004;2023-06-26T12:54:30;98854.19;;;35.71;27.88
59063;BME280;44851;45.648;9.004;2023-06-26T12:56:56;98848.88;;;35.43;27.50
59063;BME280;44851;45.648;9.004;2023-06-26T12:59:22;98848.44;;;35.50;27.61
59063;BME280;44851;45.648;9.004;2023-06-26T13:01:47;98842.78;;;35.38;28.23
59063;BME280;44851;45.648;9.004;2023-06-26T13:04:13;98839.44;;;35.41;27.63
59063;BME280;44851;45.648;9.004;2023-06-26T13:06:39;98843.63;;;35.47;28.09
59063;BME280;44851;45.648;9.004;2023-06-26T13:09:04;98849.06;;;35.47;28.13
59063;BME280;44851;45.648;9.004;2023-06-26T13:11:31;98831.56;;;35.53;28.32
59063;BME280;44851;45.648;9.004;2023-06-26T13:13:56;98844.38;;;35.61;27.99